Time;durP1;ratioP1;P1;durP2;ratioP2;P2;SDS_P1;SDS_P2;PMS_P1;PMS_P2;Temp;Humidity;BMP_temperature;BMP_pressure;BME280_temperature;BME280_humidity;BME280_pressure;Samples;Min_cycle;Max_cycle;Signal;HPM_P1;HPM_P2
2022/01/27 00:03:21;;;;;;;;;;;;;;;;;;7400225;19;1099;-45
2022/01/27 00:05:56;;;;;;;;;;;;;;;;;;7396567;19;935;-46
2022/01/27 00:08:29;;;;;;;;;;;;;;;;;;7395147;19;1853;-45
2022/01/27 00:11:03;;;;;;;;;;;;;;;;;;7396870;19;1174;-45
2022/01/27 00:13:32;;;;;;;;;;;;;;;;;;7396336;19;974;-47
2022/01/27 00:16:12;;;;;;;;;;;;;;;;;;7396393;19;856;-47
2022/01/27 00:18:41;;;;;;;;;;;;;;;;;;7396450;19;915;-45
2022/01/27 00:21:08;;;;;;;;;;;;;;;;;;7396371;19;1340;-44
2022/01/27 00:23:36;;;;;;;;;;;;;;;;;;7395956;19;909;-46
2022/01/27 00:26:03;;;;;;;;;;;;;;;;;;7396158;19;954;-44
2022/01/27 00:28:31;;;;;;;;;;;;;;;;;;7393854;19;1846;-45
2022/01/27 00:30:58;;;;;;;;;;;;;;;;;;7395741;19;950;-44
2022/01/27 00:33:25;;;;;;;;;;;;;;;;;;7393403;19;1185;-44
2022/01/27 00:35:52;;;;;;;;;;;;;;;;;;7397183;19;876;-49
2022/01/27 00:38:20;;;;;;;;;;;;;;;;;;7396167;19;939;-45
2022/01/27 00:40:47;;;;;;;;;;;;;;;;;;7395425;19;950;-43
2022/01/27 00:43:14;;;;;;;;;;;;;;;;;;7394230;19;1333;-46
2022/01/27 00:45:41;;;;;;;;;;;;;;;;;;7395369;19;854;-44
2022/01/27 00:48:08;;;;;;;;;;;;;;;;;;7394402;19;1886;-45
2022/01/27 00:50:38;;;;;;;;;;;;;;;;;;7395144;19;951;-46
2022/01/27 00:53:19;;;;;;;;;;;;;;;;;;7395219;19;972;-44
2022/01/27 00:55:46;;;;;;;;;;;;;;;;;;7395794;19;831;-44
2022/01/27 00:58:43;;;;;;;;;;;;;;;;;;7395397;19;997;-44
2022/01/27 01:01:14;;;;;;;;;;;;;;;;;;7393066;19;1288;-45
2022/01/27 01:03:45;;;;;;;;;;;;;;;;;;7395548;19;989;-45
2022/01/27 01:06:25;;;;;;;;;;;;;;;;;;7394827;19;942;-44
2022/01/27 01:14:30;;;;;;;;;;;;;;;;;;7394796;19;914;-43
2022/01/27 01:17:10;;;;;;;;;;;;;;;;;;7394325;19;867;-44
2022/01/27 01:33:12;;;;;;;;;;;;;;;;;;7394178;19;933;-45
2022/01/27 01:35:49;;;;;;;;;;;;;;;;;;7393940;19;929;-43
2022/01/27 01:38:19;;;;;;;;;;;;;;;;;;7393519;19;863;-43
2022/01/27 01:40:50;;;;;;;;;;;;;;;;;;7393498;19;1014;-44
2022/01/27 01:43:17;;;;;;;;;;;;;;;;;;7390888;19;1071;-44
2022/01/27 01:45:45;;;;;;;;;;;;;;;;;;7393258;19;916;-46
2022/01/27 01:48:14;;;;;;;;;;;;;;;;;;7392581;19;1867;-45
2022/01/27 01:50:42;;;;;;;;;;;;;;;;;;7392353;19;842;-45
2022/01/27 01:53:10;;;;;;;;;;;;;;;;;;7393124;19;970;-43
2022/01/27 01:55:37;;;;;;;;;;;;;;;;;;7392452;19;962;-45
2022/01/27 01:58:05;;;;;;;;;;;;;;;;;;7393589;19;907;-46
2022/01/27 02:00:32;;;;;;;;;;;;;;;;;;7392913;19;935;-45
2022/01/27 02:02:59;;;;;;;;;;;;;;;;;;7393449;19;911;-45
2022/01/27 02:05:32;;;;;;;;;;;;;;;;;;7393056;19;1224;-45
2022/01/27 02:19:19;;;;;;;;;;;;;;;;;;7392070;19;931;-45
2022/01/27 02:21:49;;;;;;;;;;;;;;;;;;7392371;19;1053;-43
2022/01/27 02:24:18;;;;;;;;;;;;;;;;;;7389597;19;1288;-46
2022/01/27 02:26:48;;;;;;;;;;;;;;;;;;7390650;19;1291;-43
2022/01/27 02:29:16;;;;;;;;;;;;;;;;;;7390895;19;1842;-46
2022/01/27 02:31:43;;;;;;;;;;;;;;;;;;7392169;19;847;-46
2022/01/27 02:34:11;;;;;;;;;;;;;;;;;;7391598;19;855;-44
2022/01/27 02:36:38;;;;;;;;;;;;;;;;;;7391055;19;1049;-50
2022/01/27 02:39:07;;;;;;;;;;;;;;;;;;7392554;19;861;-44
2022/01/27 02:41:41;;;;;;;;;;;;;;;;;;7391979;19;1010;-43
2022/01/27 02:44:09;;;;;;;;;;;;;;;;;;7389524;19;1097;-47
2022/01/27 02:46:42;;;;;;;;;;;;;;;;;;7391816;19;920;-45
2022/01/27 02:49:10;;;;;;;;;;;;;;;;;;7389772;19;1842;-43
2022/01/27 02:51:37;;;;;;;;;;;;;;;;;;7391231;19;902;-45
2022/01/27 02:54:04;;;;;;;;;;;;;;;;;;7389767;19;954;-44
2022/01/27 02:56:32;;;;;;;;;;;;;;;;;;7391086;19;934;-44
2022/01/27 02:58:59;;;;;;;;;;;;;;;;;;7391323;19;1074;-44
2022/01/27 03:01:26;;;;;;;;;;;;;;;;;;7388839;19;950;-43
2022/01/27 03:03:53;;;;;;;;;;;;;;;;;;7390911;19;1033;-45
2022/01/27 03:06:21;;;;;;;;;;;;;;;;;;7390972;19;1018;-43
2022/01/27 03:08:48;;;;;;;;;;;;;;;;;;7389601;19;1838;-45
2022/01/27 03:11:32;;;;;;;;;;;;;;;;;;7392645;19;1102;-49
2022/01/27 03:13:59;;;;;;;;;;;;;;;;;;7390510;19;912;-44
2022/01/27 03:16:26;;;;;;;;;;;;;;;;;;7389537;19;1198;-45
2022/01/27 03:18:53;;;;;;;;;;;;;;;;;;7390476;19;939;-44
2022/01/27 03:21:20;;;;;;;;;;;;;;;;;;7389825;19;886;-48
2022/01/27 03:23:48;;;;;;;;;;;;;;;;;;7390800;19;836;-44
2022/01/27 03:26:15;;;;;;;;;;;;;;;;;;7390123;19;855;-46
2022/01/27 03:28:46;;;;;;;;;;;;;;;;;;7388629;19;1858;-47
2022/01/27 03:31:13;;;;;;;;;;;;;;;;;;7389939;19;1089;-47
2022/01/27 03:33:41;;;;;;;;;;;;;;;;;;7389212;19;1042;-44
2022/01/27 03:36:09;;;;;;;;;;;;;;;;;;7390232;19;958;-45
2022/01/27 03:38:36;;;;;;;;;;;;;;;;;;7389020;19;1010;-44
2022/01/27 03:41:08;;;;;;;;;;;;;;;;;;7389644;19;906;-48
2022/01/27 03:43:37;;;;;;;;;;;;;;;;;;7386558;19;1048;-42
2022/01/27 03:46:05;;;;;;;;;;;;;;;;;;7389661;19;879;-50
2022/01/27 03:48:32;;;;;;;;;;;;;;;;;;7389016;19;1846;-44
2022/01/27 03:51:00;;;;;;;;;;;;;;;;;;7389795;19;840;-49
2022/01/27 03:53:27;;;;;;;;;;;;;;;;;;7389670;19;931;-44
2022/01/27 03:55:54;;;;;;;;;;;;;;;;;;7389158;19;994;-48
2022/01/27 03:58:21;;;;;;;;;;;;;;;;;;7390445;19;879;-45
2022/01/27 04:00:49;;;;;;;;;;;;;;;;;;7389043;19;959;-44
2022/01/27 04:03:18;;;;;;;;;;;;;;;;;;7389841;19;908;-44
2022/01/27 04:05:55;;;;;;;;;;;;;;;;;;7389167;19;899;-44
2022/01/27 04:08:22;;;;;;;;;;;;;;;;;;7388748;19;1846;-43
2022/01/27 04:10:50;;;;;;;;;;;;;;;;;;7389651;19;1216;-43
2022/01/27 04:13:17;;;;;;;;;;;;;;;;;;7389046;19;891;-44
2022/01/27 04:15:45;;;;;;;;;;;;;;;;;;7388774;19;840;-43
2022/01/27 04:18:13;;;;;;;;;;;;;;;;;;7389007;19;915;-43
2022/01/27 04:20:40;;;;;;;;;;;;;;;;;;7388353;19;1283;-43
2022/01/27 04:23:08;;;;;;;;;;;;;;;;;;7388347;19;1045;-44
2022/01/27 04:25:38;;;;;;;;;;;;;;;;;;7388248;19;2066;-47
2022/01/27 04:28:09;;;;;;;;;;;;;;;;;;7388657;19;1848;-44
2022/01/27 04:30:36;;;;;;;;;;;;;;;;;;7387973;19;870;-45
2022/01/27 04:33:05;;;;;;;;;;;;;;;;;;7388209;19;847;-43
2022/01/27 04:35:37;;;;;;;;;;;;;;;;;;7388298;19;938;-47
2022/01/27 04:46:07;;;;;;;;;;;;;;;;;;7388694;19;839;-45
2022/01/27 04:48:40;;;;;;;;;;;;;;;;;;7394419;19;1863;-44
2022/01/27 04:51:10;;;;;;;;;;;;;;;;;;7395031;19;919;-44
2022/01/27 04:53:47;;;;;;;;;;;;;;;;;;7395730;19;950;-43
2022/01/27 04:56:17;;;;;;;;;;;;;;;;;;7394463;19;931;-42
2022/01/27 04:58:48;;;;;;;;;;;;;;;;;;7394468;19;889;-45
2022/01/27 05:01:17;;;;;;;;;;;;;;;;;;7395355;19;895;-50
2022/01/27 05:03:54;;;;;;;;;;;;;;;;;;7393176;19;1441;-42
2022/01/27 05:06:21;;;;;;;;;;;;;;;;;;7395223;19;911;-47
2022/01/27 05:08:48;;;;;;;;;;;;;;;;;;7393555;19;1853;-45
2022/01/27 05:11:29;;;;;;;;;;;;;;;;;;7396829;19;1109;-47
2022/01/27 05:14:03;;;;;;;;;;;;;;;;;;7395224;19;938;-44
2022/01/27 05:16:30;;;;;;;;;;;;;;;;;;7394359;19;935;-50
2022/01/27 05:18:58;;;;;;;;;;;;;;;;;;7393790;19;1029;-46
2022/01/27 05:21:25;;;;;;;;;;;;;;;;;;7394221;19;951;-43
2022/01/27 05:23:52;;;;;;;;;;;;;;;;;;7394663;19;942;-44
2022/01/27 05:26:20;;;;;;;;;;;;;;;;;;7394217;19;1014;-44
2022/01/27 05:28:47;;;;;;;;;;;;;;;;;;7393969;19;1842;-44
2022/01/27 05:31:14;;;;;;;;;;;;;;;;;;7394243;19;934;-47
2022/01/27 05:33:41;;;;;;;;;;;;;;;;;;7393868;19;852;-45
2022/01/27 05:36:08;;;;;;;;;;;;;;;;;;7394209;19;1224;-43
2022/01/27 05:38:37;;;;;;;;;;;;;;;;;;7393560;19;893;-46
2022/01/27 05:41:05;;;;;;;;;;;;;;;;;;7393340;19;848;-43
2022/01/27 05:43:32;;;;;;;;;;;;;;;;;;7392165;19;1035;-49
2022/01/27 05:45:59;;;;;;;;;;;;;;;;;;7393154;19;872;-46
2022/01/27 05:48:27;;;;;;;;;;;;;;;;;;7393275;19;1850;-45
2022/01/27 05:50:54;;;;;;;;;;;;;;;;;;7393633;19;951;-47
2022/01/27 05:53:21;;;;;;;;;;;;;;;;;;7393536;19;858;-46
2022/01/27 05:55:49;;;;;;;;;;;;;;;;;;7393126;19;927;-45
2022/01/27 05:58:16;;;;;;;;;;;;;;;;;;7393019;19;860;-45
2022/01/27 06:00:43;;;;;;;;;;;;;;;;;;7392714;19;864;-43
2022/01/27 06:03:10;;;;;;;;;;;;;;;;;;7392927;19;951;-46
2022/01/27 06:05:37;;;;;;;;;;;;;;;;;;7392934;19;1006;-44
2022/01/27 06:08:05;;;;;;;;;;;;;;;;;;7392966;19;864;-45
2022/01/27 06:10:32;;;;;;;;;;;;;;;;;;7391937;19;1846;-44
2022/01/27 06:12:59;;;;;;;;;;;;;;;;;;7393134;19;1197;-46
2022/01/27 06:15:27;;;;;;;;;;;;;;;;;;7392704;19;870;-43
2022/01/27 06:17:54;;;;;;;;;;;;;;;;;;7392986;19;1001;-43
2022/01/27 06:20:21;;;;;;;;;;;;;;;;;;7392487;19;863;-46
2022/01/27 06:22:53;;;;;;;;;;;;;;;;;;7391889;19;871;-49
2022/01/27 06:25:20;;;;;;;;;;;;;;;;;;7393201;19;962;-46
2022/01/27 06:27:47;;;;;;;;;;;;;;;;;;7392132;19;977;-45
2022/01/27 06:30:14;;;;;;;;;;;;;;;;;;7390957;19;1900;-45
2022/01/27 06:32:42;;;;;;;;;;;;;;;;;;7391812;19;860;-45
2022/01/27 06:35:09;;;;;;;;;;;;;;;;;;7391777;19;954;-45
2022/01/27 06:37:37;;;;;;;;;;;;;;;;;;7391469;19;910;-46
2022/01/27 06:40:05;;;;;;;;;;;;;;;;;;7391923;19;910;-47
2022/01/27 06:42:33;;;;;;;;;;;;;;;;;;7390268;19;1044;-48
2022/01/27 06:45:00;;;;;;;;;;;;;;;;;;7390454;19;934;-47
2022/01/27 06:47:27;;;;;;;;;;;;;;;;;;7390599;19;938;-48
2022/01/27 06:49:54;;;;;;;;;;;;;;;;;;7390803;19;1858;-46
2022/01/27 06:52:24;;;;;;;;;;;;;;;;;;7391364;19;906;-50
2022/01/27 06:54:52;;;;;;;;;;;;;;;;;;7391202;19;866;-46
2022/01/27 06:57:19;;;;;;;;;;;;;;;;;;7391567;19;910;-46
2022/01/27 06:59:46;;;;;;;;;;;;;;;;;;7391037;19;958;-44
2022/01/27 07:02:14;;;;;;;;;;;;;;;;;;7391299;19;813;-46
2022/01/27 07:04:41;;;;;;;;;;;;;;;;;;7390823;19;954;-45
2022/01/27 07:07:08;;;;;;;;;;;;;;;;;;7389460;19;1191;-47
2022/01/27 07:09:35;;;;;;;;;;;;;;;;;;7387392;19;1845;-45
2022/01/27 07:12:03;;;;;;;;;;;;;;;;;;7392471;19;1295;-42
2022/01/27 07:14:32;;;;;;;;;;;;;;;;;;7391159;19;803;-43
2022/01/27 07:17:00;;;;;;;;;;;;;;;;;;7391124;19;930;-47
2022/01/27 07:19:27;;;;;;;;;;;;;;;;;;7391069;19;1299;-43
2022/01/27 07:21:55;;;;;;;;;;;;;;;;;;7390700;19;858;-47
2022/01/27 07:24:22;;;;;;;;;;;;;;;;;;7391012;19;860;-45
2022/01/27 07:26:49;;;;;;;;;;;;;;;;;;7390145;19;951;-49
2022/01/27 07:29:17;;;;;;;;;;;;;;;;;;7389553;19;1849;-47
2022/01/27 07:31:44;;;;;;;;;;;;;;;;;;7389979;19;938;-47
2022/01/27 07:34:12;;;;;;;;;;;;;;;;;;7390224;19;835;-47
2022/01/27 07:36:40;;;;;;;;;;;;;;;;;;7390057;19;872;-46
2022/01/27 07:39:14;;;;;;;;;;;;;;;;;;7390209;19;931;-47
2022/01/27 07:41:42;;;;;;;;;;;;;;;;;;7390230;19;907;-45
2022/01/27 07:44:09;;;;;;;;;;;;;;;;;;7392112;19;1062;-43
2022/01/27 07:46:36;;;;;;;;;;;;;;;;;;7389311;19;1201;-50
2022/01/27 07:49:03;;;;;;;;;;;;;;;;;;7388959;19;1875;-46
2022/01/27 07:51:31;;;;;;;;;;;;;;;;;;7389064;19;933;-45
2022/01/27 07:53:58;;;;;;;;;;;;;;;;;;7389671;19;1147;-45
2022/01/27 07:56:30;;;;;;;;;;;;;;;;;;7389635;19;966;-47
2022/01/27 07:58:57;;;;;;;;;;;;;;;;;;7389145;19;920;-43
2022/01/27 08:01:25;;;;;;;;;;;;;;;;;;7389822;19;943;-49
2022/01/27 08:03:52;;;;;;;;;;;;;;;;;;7385943;19;946;-48
2022/01/27 08:06:20;;;;;;;;;;;;;;;;;;7388650;19;1002;-49
2022/01/27 08:08:48;;;;;;;;;;;;;;;;;;7389130;19;842;-44
2022/01/27 08:11:15;;;;;;;;;;;;;;;;;;7388876;19;1858;-47
2022/01/27 08:13:42;;;;;;;;;;;;;;;;;;7388949;19;1257;-44
2022/01/27 08:16:10;;;;;;;;;;;;;;;;;;7388811;19;986;-45
2022/01/27 08:18:46;;;;;;;;;;;;;;;;;;7388980;19;926;-44
2022/01/27 08:21:13;;;;;;;;;;;;;;;;;;7393581;19;950;-44
2022/01/27 08:23:43;;;;;;;;;;;;;;;;;;7396720;19;1014;-47
2022/01/27 08:26:13;;;;;;;;;;;;;;;;;;7395402;19;935;-48
2022/01/27 08:31:08;;;;;;;;;;;;;;;;;;7394161;19;1846;-47
2022/01/27 08:33:38;;;;;;;;;;;;;;;;;;7396490;19;887;-44
2022/01/27 08:36:07;;;;;;;;;;;;;;;;;;7395577;19;1203;-44
2022/01/27 08:38:36;;;;;;;;;;;;;;;;;;7395451;19;1033;-43
2022/01/27 08:41:04;;;;;;;;;;;;;;;;;;7395537;19;1045;-45
2022/01/27 08:43:31;;;;;;;;;;;;;;;;;;7393879;19;1166;-48
2022/01/27 08:46:00;;;;;;;;;;;;;;;;;;7395896;19;994;-43
2022/01/27 08:48:28;;;;;;;;;;;;;;;;;;7395636;19;1300;-46
2022/01/27 08:51:00;;;;;;;;;;;;;;;;;;7393262;19;1907;-46
2022/01/27 08:53:48;;;;;;;;;;;;;;;;;;7396471;19;936;-45
2022/01/27 08:56:17;;;;;;;;;;;;;;;;;;7395404;19;966;-48
2022/01/27 08:58:44;;;;;;;;;;;;;;;;;;7394857;19;970;-44
2022/01/27 09:01:11;;;;;;;;;;;;;;;;;;7394649;19;950;-47
2022/01/27 09:03:39;;;;;;;;;;;;;;;;;;7395257;19;891;-46
2022/01/27 09:06:06;;;;;;;;;;;;;;;;;;7394942;19;942;-51
2022/01/27 09:08:54;;;;;;;;;;;;;;;;;;7394849;19;899;-45
2022/01/27 09:11:22;;;;;;;;;;;;;;;;;;7394028;19;1858;-49
2022/01/27 09:14:09;;;;;;;;;;;;;;;;;;7394037;19;959;-47
2022/01/27 09:16:36;;;;;;;;;;;;;;;;;;7394987;19;947;-46
2022/01/27 09:19:10;;;;;;;;;;;;;;;;;;7395094;19;907;-47
2022/01/27 09:21:44;;;;;;;;;;;;;;;;;;7394066;19;871;-48
2022/01/27 09:24:15;;;;;;;;;;;;;;;;;;7394283;19;1041;-47
2022/01/27 09:26:52;;;;;;;;;;;;;;;;;;7393887;19;903;-45
2022/01/27 09:29:20;;;;;;;;;;;;;;;;;;7393587;19;1849;-45
2022/01/27 09:31:48;;;;;;;;;;;;;;;;;;7392490;19;926;-49
2022/01/27 09:34:15;;;;;;;;;;;;;;;;;;7394028;19;951;-45
2022/01/27 09:36:43;;;;;;;;;;;;;;;;;;7393464;19;1030;-44
2022/01/27 09:39:10;;;;;;;;;;;;;;;;;;7393739;19;951;-47
2022/01/27 09:41:40;;;;;;;;;;;;;;;;;;7394228;19;928;-44
2022/01/27 09:44:12;;;;;;;;;;;;;;;;;;7390807;19;1077;-43
2022/01/27 09:46:42;;;;;;;;;;;;;;;;;;7393409;19;907;-47
2022/01/27 09:49:13;;;;;;;;;;;;;;;;;;7392105;19;935;-46
2022/01/27 09:51:45;;;;;;;;;;;;;;;;;;7390099;19;1846;-50
2022/01/27 09:54:13;;;;;;;;;;;;;;;;;;7393217;19;990;-46
2022/01/27 09:56:41;;;;;;;;;;;;;;;;;;7393012;19;954;-46
2022/01/27 09:59:11;;;;;;;;;;;;;;;;;;7393165;19;894;-52
2022/01/27 10:01:51;;;;;;;;;;;;;;;;;;7395524;19;973;-45
2022/01/27 10:04:18;;;;;;;;;;;;;;;;;;7392699;19;871;-43
2022/01/27 10:06:46;;;;;;;;;;;;;;;;;;7392553;19;855;-49
2022/01/27 10:09:15;;;;;;;;;;;;;;;;;;7393109;19;847;-44
2022/01/27 10:11:43;;;;;;;;;;;;;;;;;;7393692;19;1858;-45
2022/01/27 10:14:24;;;;;;;;;;;;;;;;;;7367143;19;11464;-47
2022/01/27 10:16:54;;;;;;;;;;;;;;;;;;7392851;19;1012;-51
2022/01/27 10:19:23;;;;;;;;;;;;;;;;;;7390339;19;942;-44
2022/01/27 10:21:50;;;;;;;;;;;;;;;;;;7392005;19;951;-46
2022/01/27 10:24:21;;;;;;;;;;;;;;;;;;7392518;19;862;-44
2022/01/27 10:27:15;;;;;;;;;;;;;;;;;;7392156;19;875;-44
2022/01/27 10:30:03;;;;;;;;;;;;;;;;;;7392735;19;1842;-44
2022/01/27 10:32:37;;;;;;;;;;;;;;;;;;7391951;19;850;-46
2022/01/27 10:35:05;;;;;;;;;;;;;;;;;;7392094;19;958;-50
2022/01/27 10:37:51;;;;;;;;;;;;;;;;;;7395269;19;1177;-49
2022/01/27 10:40:26;;;;;;;;;;;;;;;;;;7392123;19;884;-45
2022/01/27 10:43:04;;;;;;;;;;;;;;;;;;7391238;19;1246;-53
2022/01/27 10:45:31;;;;;;;;;;;;;;;;;;7390163;19;986;-49
2022/01/27 10:48:21;;;;;;;;;;;;;;;;;;7391591;19;931;-44
2022/01/27 10:53:46;;;;;;;;;;;;;;;;;;7392205;19;1236;-45
2022/01/27 10:56:21;;;;;;;;;;;;;;;;;;7390944;19;930;-51
2022/01/27 10:58:50;;;;;;;;;;;;;;;;;;7391534;19;1001;-48
2022/01/27 11:01:21;;;;;;;;;;;;;;;;;;7390906;19;926;-47
2022/01/27 11:03:50;;;;;;;;;;;;;;;;;;7390907;19;986;-48
2022/01/27 11:06:18;;;;;;;;;;;;;;;;;;7391142;19;931;-47
2022/01/27 11:08:46;;;;;;;;;;;;;;;;;;7390422;19;959;-48
2022/01/27 11:11:13;;;;;;;;;;;;;;;;;;7391011;19;1834;-51
2022/01/27 11:13:43;;;;;;;;;;;;;;;;;;7390712;19;863;-46
2022/01/27 11:16:14;;;;;;;;;;;;;;;;;;7390787;19;958;-49
2022/01/27 11:18:44;;;;;;;;;;;;;;;;;;7390260;19;946;-44
2022/01/27 11:21:26;;;;;;;;;;;;;;;;;;7390228;19;947;-48
2022/01/27 11:26:53;;;;;;;;;;;;;;;;;;7388674;19;1286;-52
2022/01/27 11:29:21;;;;;;;;;;;;;;;;;;7388620;19;896;-45
2022/01/27 11:31:48;;;;;;;;;;;;;;;;;;7388907;19;1861;-51
2022/01/27 11:34:16;;;;;;;;;;;;;;;;;;7390739;19;893;-46
2022/01/27 11:37:10;;;;;;;;;;;;;;;;;;7388994;19;1224;-45
2022/01/27 11:39:54;;;;;;;;;;;;;;;;;;7389700;19;1073;-52
2022/01/27 11:42:45;;;;;;;;;;;;;;;;;;7389856;19;1115;-47
2022/01/27 11:45:33;;;;;;;;;;;;;;;;;;7389232;19;1018;-45
2022/01/27 11:48:05;;;;;;;;;;;;;;;;;;7389495;19;994;-45
2022/01/27 11:50:37;;;;;;;;;;;;;;;;;;7389017;19;1868;-50
2022/01/27 11:53:14;;;;;;;;;;;;;;;;;;7389898;19;882;-44
2022/01/27 11:55:45;;;;;;;;;;;;;;;;;;7388971;19;918;-47
2022/01/27 11:58:12;;;;;;;;;;;;;;;;;;7389529;19;859;-50
2022/01/27 12:00:40;;;;;;;;;;;;;;;;;;7388971;19;899;-48
2022/01/27 12:03:07;;;;;;;;;;;;;;;;;;7389379;19;930;-47
2022/01/27 12:05:36;;;;;;;;;;;;;;;;;;7389073;19;962;-46
2022/01/27 12:08:19;;;;;;;;;;;;;;;;;;7389525;19;867;-47
2022/01/27 12:11:37;;;;;;;;;;;;;;;;;;7389950;19;1857;-50
2022/01/27 12:14:39;;;;;;;;;;;;;;;;;;7389537;19;1137;-50
2022/01/27 12:17:22;;;;;;;;;;;;;;;;;;7388415;19;1354;-52
2022/01/27 12:19:54;;;;;;;;;;;;;;;;;;7388929;19;938;-54
2022/01/27 12:22:43;;;;;;;;;;;;;;;;;;7389240;19;899;-47
2022/01/27 12:25:12;;;;;;;;;;;;;;;;;;7387460;19;1974;-48
2022/01/27 12:27:41;;;;;;;;;;;;;;;;;;7388464;19;879;-51
2022/01/27 12:30:17;;;;;;;;;;;;;;;;;;7388091;19;1861;-48
2022/01/27 12:32:45;;;;;;;;;;;;;;;;;;7387810;19;827;-50
2022/01/27 12:35:15;;;;;;;;;;;;;;;;;;7388957;19;978;-48
2022/01/27 12:37:46;;;;;;;;;;;;;;;;;;7388689;19;859;-52
2022/01/27 12:40:18;;;;;;;;;;;;;;;;;;7388282;19;911;-46
2022/01/27 12:42:58;;;;;;;;;;;;;;;;;;7387110;19;970;-46
2022/01/27 12:45:36;;;;;;;;;;;;;;;;;;7389090;19;1351;-49
2022/01/27 12:48:09;;;;;;;;;;;;;;;;;;7387865;19;1081;-51
2022/01/27 12:50:37;;;;;;;;;;;;;;;;;;7387776;19;1834;-50
2022/01/27 12:53:11;;;;;;;;;;;;;;;;;;7387525;19;998;-50
2022/01/27 12:55:43;;;;;;;;;;;;;;;;;;7385847;19;1002;-50
2022/01/27 12:58:12;;;;;;;;;;;;;;;;;;7387589;19;1029;-45
2022/01/27 13:00:43;;;;;;;;;;;;;;;;;;7387432;19;927;-50
2022/01/27 13:03:13;;;;;;;;;;;;;;;;;;7386508;19;886;-49
2022/01/27 13:05:41;;;;;;;;;;;;;;;;;;7387298;19;1006;-46
2022/01/27 13:08:10;;;;;;;;;;;;;;;;;;7392088;19;1098;-46
2022/01/27 13:10:38;;;;;;;;;;;;;;;;;;7398461;19;1879;-48
2022/01/27 13:13:07;;;;;;;;;;;;;;;;;;7394629;19;1207;-49
2022/01/27 13:15:34;;;;;;;;;;;;;;;;;;7392845;19;844;-44
2022/01/27 13:18:11;;;;;;;;;;;;;;;;;;7394012;19;1058;-46
2022/01/27 13:20:45;;;;;;;;;;;;;;;;;;7393564;19;987;-47
2022/01/27 13:23:26;;;;;;;;;;;;;;;;;;7394191;19;882;-45
2022/01/27 13:25:57;;;;;;;;;;;;;;;;;;7394154;19;867;-51
2022/01/27 13:28:26;;;;;;;;;;;;;;;;;;7394197;19;883;-52
2022/01/27 13:30:55;;;;;;;;;;;;;;;;;;7393993;19;1850;-47
2022/01/27 13:33:23;;;;;;;;;;;;;;;;;;7394560;19;978;-50
2022/01/27 13:35:51;;;;;;;;;;;;;;;;;;7394121;19;946;-50
2022/01/27 13:38:24;;;;;;;;;;;;;;;;;;7394358;19;867;-51
2022/01/27 13:43:46;;;;;;;;;;;;;;;;;;7391639;19;1077;-50
2022/01/27 13:46:32;;;;;;;;;;;;;;;;;;7393608;19;823;-47
2022/01/27 13:49:14;;;;;;;;;;;;;;;;;;7393881;19;899;-49
2022/01/27 13:51:45;;;;;;;;;;;;;;;;;;7392248;19;1850;-46
2022/01/27 13:54:13;;;;;;;;;;;;;;;;;;7393094;19;972;-44
2022/01/27 13:56:44;;;;;;;;;;;;;;;;;;7392138;19;1025;-46
2022/01/27 13:59:17;;;;;;;;;;;;;;;;;;7393400;19;851;-53
2022/01/27 14:01:46;;;;;;;;;;;;;;;;;;7392611;19;1376;-45
2022/01/27 14:04:13;;;;;;;;;;;;;;;;;;7392778;19;916;-53
2022/01/27 14:06:53;;;;;;;;;;;;;;;;;;7392195;19;1288;-48
2022/01/27 14:09:22;;;;;;;;;;;;;;;;;;7392731;19;943;-51
2022/01/27 14:11:54;;;;;;;;;;;;;;;;;;7394681;19;1862;-45
2022/01/27 14:14:40;;;;;;;;;;;;;;;;;;7393043;19;1236;-49
2022/01/27 14:17:27;;;;;;;;;;;;;;;;;;7396290;19;1018;-50
2022/01/27 14:19:55;;;;;;;;;;;;;;;;;;7392561;19;950;-43
2022/01/27 14:22:26;;;;;;;;;;;;;;;;;;7392083;19;1002;-50
2022/01/27 14:25:01;;;;;;;;;;;;;;;;;;7392512;19;1323;-43
2022/01/27 14:27:32;;;;;;;;;;;;;;;;;;7391840;19;947;-45
2022/01/27 14:29:59;;;;;;;;;;;;;;;;;;7390481;19;1102;-47
2022/01/27 14:32:27;;;;;;;;;;;;;;;;;;7391542;19;1857;-44
2022/01/27 14:34:56;;;;;;;;;;;;;;;;;;7392467;19;963;-42
2022/01/27 14:37:24;;;;;;;;;;;;;;;;;;7392442;19;907;-48
2022/01/27 14:39:51;;;;;;;;;;;;;;;;;;7392873;19;922;-44
2022/01/27 14:42:23;;;;;;;;;;;;;;;;;;7391800;19;1077;-45
2022/01/27 14:44:53;;;;;;;;;;;;;;;;;;7392040;19;843;-42
2022/01/27 14:47:21;;;;;;;;;;;;;;;;;;7391115;19;958;-45
2022/01/27 14:49:52;;;;;;;;;;;;;;;;;;7391632;19;920;-47
2022/01/27 14:52:26;;;;;;;;;;;;;;;;;;7390203;19;1853;-46
2022/01/27 14:54:54;;;;;;;;;;;;;;;;;;7390742;19;971;-47
2022/01/27 14:57:37;;;;;;;;;;;;;;;;;;7391607;19;911;-42
2022/01/27 15:00:06;;;;;;;;;;;;;;;;;;7389393;19;954;-45
2022/01/27 15:02:35;;;;;;;;;;;;;;;;;;7389162;19;955;-45
2022/01/27 15:05:03;;;;;;;;;;;;;;;;;;7391171;19;950;-52
2022/01/27 15:07:30;;;;;;;;;;;;;;;;;;7389421;19;923;-50
2022/01/27 15:10:03;;;;;;;;;;;;;;;;;;7392001;19;871;-44
2022/01/27 15:12:36;;;;;;;;;;;;;;;;;;7393658;19;1850;-47
2022/01/27 15:20:36;;;;;;;;;;;;;;;;;;7390480;19;1049;-50
2022/01/27 15:23:03;;;;;;;;;;;;;;;;;;7390195;19;983;-46
2022/01/27 15:25:31;;;;;;;;;;;;;;;;;;7390860;19;974;-44
2022/01/27 15:27:58;;;;;;;;;;;;;;;;;;7390862;19;1042;-50
2022/01/27 15:30:26;;;;;;;;;;;;;;;;;;7389278;19;1033;-46
2022/01/27 15:32:53;;;;;;;;;;;;;;;;;;7388460;19;1834;-46
2022/01/27 15:35:21;;;;;;;;;;;;;;;;;;7390069;19;919;-47
2022/01/27 15:37:48;;;;;;;;;;;;;;;;;;7390269;19;946;-46
2022/01/27 15:40:16;;;;;;;;;;;;;;;;;;7390292;19;939;-51
2022/01/27 15:42:51;;;;;;;;;;;;;;;;;;7388192;19;1176;-46
2022/01/27 15:45:22;;;;;;;;;;;;;;;;;;7388059;19;929;-46
2022/01/27 15:47:50;;;;;;;;;;;;;;;;;;7391899;19;1087;-45
2022/01/27 15:50:18;;;;;;;;;;;;;;;;;;7390193;19;958;-50
2022/01/27 15:52:46;;;;;;;;;;;;;;;;;;7387225;19;1842;-49
2022/01/27 15:55:14;;;;;;;;;;;;;;;;;;7389833;19;907;-48
2022/01/27 15:57:41;;;;;;;;;;;;;;;;;;7389272;19;979;-47
2022/01/27 16:00:11;;;;;;;;;;;;;;;;;;7389682;19;1010;-45
2022/01/27 16:02:42;;;;;;;;;;;;;;;;;;7388934;19;863;-49
2022/01/27 16:05:10;;;;;;;;;;;;;;;;;;7389116;19;978;-49
2022/01/27 16:07:37;;;;;;;;;;;;;;;;;;7388499;19;900;-46
2022/01/27 16:10:08;;;;;;;;;;;;;;;;;;7387942;19;970;-44
2022/01/27 16:12:41;;;;;;;;;;;;;;;;;;7388974;19;1862;-43
2022/01/27 16:15:09;;;;;;;;;;;;;;;;;;7389040;19;1031;-45
2022/01/27 16:17:37;;;;;;;;;;;;;;;;;;7388504;19;845;-48
2022/01/27 16:20:05;;;;;;;;;;;;;;;;;;7388764;19;958;-48
2022/01/27 16:22:32;;;;;;;;;;;;;;;;;;7388500;19;927;-46
2022/01/27 16:25:00;;;;;;;;;;;;;;;;;;7389156;19;864;-47
2022/01/27 16:27:27;;;;;;;;;;;;;;;;;;7388936;19;946;-47
2022/01/27 16:29:55;;;;;;;;;;;;;;;;;;7388363;19;895;-46
2022/01/27 16:32:22;;;;;;;;;;;;;;;;;;7386632;19;1849;-46
2022/01/27 16:34:50;;;;;;;;;;;;;;;;;;7386672;19;1038;-48
2022/01/27 16:37:18;;;;;;;;;;;;;;;;;;7388174;19;867;-46
2022/01/27 16:39:47;;;;;;;;;;;;;;;;;;7387571;19;1184;-47
2022/01/27 16:42:15;;;;;;;;;;;;;;;;;;7390989;19;1105;-45
2022/01/27 16:44:42;;;;;;;;;;;;;;;;;;7396176;19;997;-46
2022/01/27 16:47:11;;;;;;;;;;;;;;;;;;7397354;19;1104;-46
2022/01/27 16:49:38;;;;;;;;;;;;;;;;;;7397149;19;1046;-50
2022/01/27 16:52:07;;;;;;;;;;;;;;;;;;7394109;19;1868;-45
2022/01/27 16:54:36;;;;;;;;;;;;;;;;;;7394849;19;930;-51
2022/01/27 16:57:05;;;;;;;;;;;;;;;;;;7395743;19;908;-46
2022/01/27 16:59:33;;;;;;;;;;;;;;;;;;7395906;19;900;-46
2022/01/27 17:02:00;;;;;;;;;;;;;;;;;;7394644;19;1010;-46
2022/01/27 17:04:27;;;;;;;;;;;;;;;;;;7394913;19;923;-49
2022/01/27 17:06:55;;;;;;;;;;;;;;;;;;7395061;19;959;-45
2022/01/27 17:09:22;;;;;;;;;;;;;;;;;;7395224;19;852;-49
2022/01/27 17:11:49;;;;;;;;;;;;;;;;;;7397570;19;1861;-49
2022/01/27 17:14:16;;;;;;;;;;;;;;;;;;7395665;19;984;-52
2022/01/27 17:16:44;;;;;;;;;;;;;;;;;;7394167;19;890;-45
2022/01/27 17:19:13;;;;;;;;;;;;;;;;;;7394391;19;954;-49
2022/01/27 17:21:40;;;;;;;;;;;;;;;;;;7394251;19;931;-46
2022/01/27 17:24:08;;;;;;;;;;;;;;;;;;7393539;19;1057;-45
2022/01/27 17:26:35;;;;;;;;;;;;;;;;;;7394337;19;925;-45
2022/01/27 17:29:02;;;;;;;;;;;;;;;;;;7394626;19;937;-49
2022/01/27 17:31:35;;;;;;;;;;;;;;;;;;7394856;19;1852;-48
2022/01/27 17:34:03;;;;;;;;;;;;;;;;;;7394302;19;1013;-45
2022/01/27 17:36:31;;;;;;;;;;;;;;;;;;7395006;19;893;-45
2022/01/27 17:38:59;;;;;;;;;;;;;;;;;;7394470;19;920;-52
2022/01/27 17:41:27;;;;;;;;;;;;;;;;;;7396973;19;1154;-47
2022/01/27 17:44:16;;;;;;;;;;;;;;;;;;7387268;19;1207;-47
2022/01/27 17:46:44;;;;;;;;;;;;;;;;;;7388958;19;876;-53
2022/01/27 17:49:13;;;;;;;;;;;;;;;;;;7391341;19;959;-49
2022/01/27 17:51:42;;;;;;;;;;;;;;;;;;7391819;19;1833;-52
2022/01/27 17:54:10;;;;;;;;;;;;;;;;;;7388872;19;938;-51
2022/01/27 17:56:37;;;;;;;;;;;;;;;;;;7390950;19;914;-45
2022/01/27 17:59:05;;;;;;;;;;;;;;;;;;7392846;19;962;-46
2022/01/27 18:01:35;;;;;;;;;;;;;;;;;;7393497;19;878;-44
2022/01/27 18:04:03;;;;;;;;;;;;;;;;;;7392454;19;871;-45
2022/01/27 18:06:30;;;;;;;;;;;;;;;;;;7395102;19;1170;-43
2022/01/27 18:08:58;;;;;;;;;;;;;;;;;;7392577;19;871;-45
2022/01/27 18:11:29;;;;;;;;;;;;;;;;;;7395206;19;1037;-43
2022/01/27 18:13:59;;;;;;;;;;;;;;;;;;7392919;19;1005;-45
2022/01/27 18:16:29;;;;;;;;;;;;;;;;;;7390398;19;1088;-44
2022/01/27 18:18:57;;;;;;;;;;;;;;;;;;7391633;19;1022;-44
2022/01/27 18:21:25;;;;;;;;;;;;;;;;;;7392100;19;962;-45
2022/01/27 18:23:55;;;;;;;;;;;;;;;;;;7391432;19;931;-45
2022/01/27 18:26:22;;;;;;;;;;;;;;;;;;7392097;19;832;-44
2022/01/27 18:28:49;;;;;;;;;;;;;;;;;;7392890;19;887;-48
2022/01/27 18:31:17;;;;;;;;;;;;;;;;;;7391584;19;951;-43